Time;durP1;ratioP1;P1;durP2;ratioP2;P2;SDS_P1;SDS_P2;PMS_P1;PMS_P2;Temp;Humidity;BMP_temperature;BMP_pressure;BME280_temperature;BME280_humidity;BME280_pressure;Samples;Min_cycle;Max_cycle;Signal;HPM_P1;HPM_P2
2022/06/18 00:00:23;;;;;;;5.53;2.83;;;;;;;25.00;39.30;101750.22;4828238;29;20038;-85
2022/06/18 00:02:48;;;;;;;6.40;2.30;;;;;;;25.00;39.19;101752.00;4843092;29;20117;-85
2022/06/18 00:05:16;;;;;;;5.55;2.53;;;;;;;25.00;39.50;101758.13;4844235;29;20130;-85
2022/06/18 00:07:53;;;;;;;6.85;2.53;;;;;;;25.00;39.65;101749.38;4843247;29;20041;-85
2022/06/18 00:10:22;;;;;;;4.68;2.33;;;;;;;24.98;39.52;101753.81;4843271;29;20034;-85
2022/06/18 00:15:35;;;;;;;5.45;2.45;;;;;;;24.98;39.94;101749.41;4843552;29;20442;-85
2022/06/18 00:18:01;;;;;;;4.40;2.55;;;;;;;24.96;40.00;101764.38;4843274;29;20030;-85
2022/06/18 00:20:31;;;;;;;5.57;2.30;;;;;;;24.96;39.86;101764.38;4853467;29;20049;-85
2022/06/18 00:23:01;;;;;;;6.13;2.47;;;;;;;24.95;39.70;101762.63;4855799;29;20051;-84
2022/06/18 00:25:31;;;;;;;5.70;2.50;;;;;;;24.93;40.03;101761.78;4855669;29;20050;-85
2022/06/18 00:27:56;;;;;;;4.95;2.35;;;;;;;24.94;39.91;101765.31;4849439;29;20409;-85
2022/06/18 00:30:24;;;;;;;7.05;3.13;;;;;;;24.93;40.15;101771.47;4834990;29;20037;-85
2022/06/18 00:32:50;;;;;;;4.38;2.45;;;;;;;24.93;40.02;101761.78;4853956;29;20503;-86
2022/06/18 00:35:16;;;;;;;4.90;2.55;;;;;;;24.97;40.07;101783.66;4828501;29;20064;-85
2022/06/18 00:37:43;;;;;;;8.40;3.17;;;;;;;24.96;40.18;101777.53;4827920;29;20082;-85
2022/06/18 00:40:14;;;;;;;7.97;2.83;;;;;;;24.95;40.14;101781.06;4842637;29;20061;-85
2022/06/18 00:42:39;;;;;;;5.97;2.78;;;;;;;24.96;40.26;101766.13;4842939;29;20026;-86
2022/06/18 00:45:06;;;;;;;5.32;2.72;;;;;;;24.93;40.55;101774.09;4827902;29;20090;-86
2022/06/18 00:47:54;;;;;;;6.28;2.63;;;;;;;24.90;40.67;101777.69;4843834;29;20040;-85
2022/06/18 00:50:28;;;;;;;11.77;3.05;;;;;;;24.90;40.45;101780.31;4843788;29;20059;-86
2022/06/18 00:53:27;;;;;;;6.55;3.00;;;;;;;24.90;40.72;101776.81;4843632;29;20034;-85
2022/06/18 00:56:03;;;;;;;5.40;2.40;;;;;;;24.88;40.86;101779.50;4842013;29;20042;-85
2022/06/18 00:58:36;;;;;;;4.50;2.75;;;;;;;24.88;41.07;101776.00;4842278;29;20026;-85
2022/06/18 01:01:09;;;;;;;4.72;2.83;;;;;;;24.87;41.16;101774.25;4843642;29;20166;-87
2022/06/18 01:03:36;;;;;;;7.30;2.92;;;;;;;24.87;40.92;101772.50;4827971;29;20030;-84
2022/06/18 01:06:15;;;;;;;9.15;2.70;;;;;;;24.84;41.29;101773.44;4827219;29;20044;-85
2022/06/18 01:08:43;;;;;;;6.78;3.05;;;;;;;24.88;41.16;101773.38;4842342;29;20117;-84
2022/06/18 01:11:21;;;;;;;7.80;2.83;;;;;;;24.84;41.24;101772.56;4845444;29;20016;-84
2022/06/18 01:13:47;;;;;;;6.13;3.00;;;;;;;24.83;41.44;101769.09;4855549;29;20366;-84
2022/06/18 01:16:13;;;;;;;6.65;2.83;;;;;;;24.80;41.65;101766.53;4842539;29;20496;-84
2022/06/18 01:18:40;;;;;;;6.78;3.20;;;;;;;24.81;41.66;101770.03;4827655;29;20065;-86
2022/06/18 01:21:32;;;;;;;5.22;2.78;;;;;;;24.81;41.75;101762.97;4842267;29;20042;-86
2022/06/18 01:24:19;;;;;;;7.55;3.15;;;;;;;24.82;41.52;101761.22;4843442;29;20086;-86
2022/06/18 01:26:48;;;;;;;6.78;3.13;;;;;;;24.79;41.66;101762.16;4843294;29;20110;-83
2022/06/18 01:29:13;;;;;;;5.65;3.05;;;;;;;24.79;41.86;101756.91;4842205;29;20075;-85
2022/06/18 01:31:39;;;;;;;6.82;3.17;;;;;;;24.77;41.83;101752.56;4827045;29;20049;-86
2022/06/18 01:34:08;;;;;;;9.00;3.72;;;;;;;24.75;42.05;101760.50;4829004;29;20041;-85
2022/06/18 01:36:36;;;;;;;10.38;3.22;;;;;;;24.77;41.90;101752.56;4845827;29;20026;-86
2022/06/18 01:39:04;;;;;;;6.07;2.95;;;;;;;24.76;42.18;101756.09;4847229;29;20105;-85
2022/06/18 01:41:52;;;;;;;10.52;3.38;;;;;;;24.73;42.21;101754.41;4845685;29;20065;-86
2022/06/18 01:44:23;;;;;;;10.02;3.58;;;;;;;24.70;42.10;101757.13;4846990;29;20146;-86
2022/06/18 01:46:51;;;;;;;6.28;3.05;;;;;;;24.73;42.28;101756.19;4846783;29;20473;-84
2022/06/18 01:49:22;;;;;;;9.30;3.20;;;;;;;24.72;42.26;101768.50;4845782;29;20029;-86
2022/06/18 01:51:49;;;;;;;7.05;3.15;;;;;;;24.70;42.51;101765.03;4846978;29;20101;-86
2022/06/18 01:54:23;;;;;;;9.43;3.40;;;;;;;24.69;42.59;101765.91;4833436;29;20038;-85
2022/06/18 01:56:53;;;;;;;7.90;3.33;;;;;;;24.70;42.40;101769.44;4847785;29;20022;-85
2022/06/18 01:59:43;;;;;;;7.68;3.47;;;;;;;24.68;42.42;101774.72;4847733;29;20041;-85
2022/06/18 02:02:09;;;;;;;9.38;3.60;;;;;;;24.66;43.00;101773.91;4845755;29;20040;-86
2022/06/18 02:04:35;;;;;;;9.55;3.95;;;;;;;24.66;42.65;101766.00;4815479;29;20026;-86
2022/06/18 02:07:04;;;;;;;7.72;3.30;;;;;;;24.66;43.02;101771.28;4830164;29;20038;-86
2022/06/18 02:09:41;;;;;;;7.95;3.63;;;;;;;24.65;42.82;101769.56;4845079;29;20125;-86
2022/06/18 02:12:16;;;;;;;9.85;3.55;;;;;;;24.64;42.79;101773.94;4845322;29;20117;-86
2022/06/18 02:14:46;;;;;;;11.27;3.30;;;;;;;24.64;42.52;101771.28;4846490;29;20118;-86
2022/06/18 02:17:17;;;;;;;8.75;3.45;;;;;;;24.65;42.70;101764.28;4845010;29;20380;-86
2022/06/18 02:19:47;;;;;;;8.07;3.50;;;;;;;24.64;43.13;101767.81;4845240;29;20030;-86
2022/06/18 02:22:13;;;;;;;10.05;3.70;;;;;;;24.63;42.66;101763.47;4845090;29;20080;-86
2022/06/18 02:24:40;;;;;;;7.70;3.40;;;;;;;24.61;43.00;101765.25;4829834;29;20061;-86
2022/06/18 02:27:05;;;;;;;9.10;4.03;;;;;;;24.59;42.86;101759.16;4829686;29;20026;-86
2022/06/18 02:29:32;;;;;;;8.98;3.63;;;;;;;24.59;42.81;101764.44;4845176;29;20090;-86
2022/06/18 02:32:01;;;;;;;12.77;4.18;;;;;;;24.60;42.84;101768.78;4829713;29;20041;-86
2022/06/18 02:34:29;;;;;;;10.85;3.70;;;;;;;24.56;43.18;101764.50;4854407;29;20037;-86
2022/06/18 02:36:55;;;;;;;8.63;3.63;;;;;;;24.58;43.11;101768.81;4853280;29;20038;-86
2022/06/18 02:39:34;;;;;;;11.73;3.90;;;;;;;24.59;43.09;101769.69;4845607;29;20041;-85
2022/06/18 02:42:14;;;;;;;6.95;3.70;;;;;;;24.58;43.24;101770.59;4845289;29;20054;-86
2022/06/18 02:44:44;;;;;;;11.10;4.00;;;;;;;24.55;42.95;101776.78;4844039;29;20075;-87
2022/06/18 02:47:11;;;;;;;7.97;3.55;;;;;;;24.54;43.15;101775.06;4847144;29;20037;-86
2022/06/18 02:49:50;;;;;;;9.48;3.80;;;;;;;24.53;43.52;101786.47;4855008;29;20027;-86
2022/06/18 02:52:16;;;;;;;10.90;3.90;;;;;;;24.54;43.27;101780.34;4853412;29;20093;-85
2022/06/18 02:54:41;;;;;;;10.20;3.92;;;;;;;24.56;43.06;101788.19;4852370;29;20069;-86
2022/06/18 02:57:20;;;;;;;8.70;3.58;;;;;;;24.54;43.59;101787.34;4829650;29;20041;-86
2022/06/18 02:59:46;;;;;;;13.02;3.80;;;;;;;24.53;43.58;101785.63;4844988;29;20465;-86
2022/06/18 03:02:11;;;;;;;11.18;3.90;;;;;;;24.53;43.59;101788.25;4829879;29;20094;-86
2022/06/18 03:04:36;;;;;;;9.95;4.00;;;;;;;24.52;43.49;101791.78;4829493;29;20473;-86
2022/06/18 03:07:02;;;;;;;13.75;4.15;;;;;;;24.50;43.40;101785.69;4829639;29;20033;-86
2022/06/18 03:09:27;;;;;;;9.85;3.78;;;;;;;24.48;43.65;101793.63;4829143;29;20485;-86
2022/06/18 03:12:08;;;;;;;8.77;3.60;;;;;;;24.50;43.54;101796.22;4844805;29;20062;-85
2022/06/18 03:14:33;;;;;;;9.82;4.07;;;;;;;24.50;43.64;101802.34;4817974;29;20639;-86
2022/06/18 03:16:59;;;;;;;13.45;4.07;;;;;;;24.49;43.67;101797.13;4862255;29;20112;-85
2022/06/18 03:19:26;;;;;;;8.13;4.20;;;;;;;24.48;43.60;101800.63;4845952;29;20050;-86
2022/06/18 03:21:56;;;;;;;10.13;3.95;;;;;;;24.48;43.48;101801.53;4844639;29;20037;-85
2022/06/18 03:24:22;;;;;;;11.10;3.28;;;;;;;24.46;43.52;101807.69;4844295;29;20482;-85
2022/06/18 03:26:47;;;;;;;11.27;4.70;;;;;;;24.42;43.72;101799.84;4813612;29;20076;-86
2022/06/18 03:29:13;;;;;;;11.05;3.83;;;;;;;24.42;43.92;101805.13;4813742;29;20038;-86
2022/06/18 03:31:38;;;;;;;9.25;3.60;;;;;;;24.40;44.00;101808.69;4829142;29;20575;-86
2022/06/18 03:34:04;;;;;;;11.18;3.92;;;;;;;24.43;43.69;101805.97;4828801;29;20063;-85
2022/06/18 03:36:30;;;;;;;9.05;3.42;;;;;;;24.43;44.02;101809.50;4844392;29;20034;-86
2022/06/18 03:38:55;;;;;;;8.75;3.80;;;;;;;24.43;44.05;101801.59;4828524;29;20179;-86
2022/06/18 03:41:21;;;;;;;6.90;3.70;;;;;;;24.42;43.98;101804.25;4828792;29;20068;-86
2022/06/18 03:43:47;;;;;;;10.52;3.90;;;;;;;24.39;43.84;101806.97;4844405;29;20025;-86
2022/06/18 03:46:16;;;;;;;11.73;4.18;;;;;;;24.37;43.88;101800.88;4828760;29;20397;-87
2022/06/18 03:48:44;;;;;;;10.20;3.85;;;;;;;24.37;44.13;101811.41;4843732;29;20030;-86
2022/06/18 03:51:10;;;;;;;8.80;4.05;;;;;;;24.37;43.99;101800.88;4844765;29;20030;-87
2022/06/18 03:53:36;;;;;;;11.98;3.75;;;;;;;24.40;43.99;101800.81;4828330;29;20068;-87
2022/06/18 03:56:02;;;;;;;8.30;3.92;;;;;;;24.38;43.93;101803.47;4829259;29;20463;-86
2022/06/18 03:58:28;;;;;;;11.77;4.03;;;;;;;24.39;44.07;101799.09;4844454;29;20136;-86
2022/06/18 04:00:54;;;;;;;8.23;4.03;;;;;;;24.38;44.09;101799.97;4844213;29;20058;-86
2022/06/18 04:03:19;;;;;;;9.68;3.63;;;;;;;24.38;43.96;101803.47;4845210;29;20101;-86
2022/06/18 04:05:44;;;;;;;8.07;3.50;;;;;;;24.38;44.03;101805.22;4828489;29;20039;-87
2022/06/18 04:08:15;;;;;;;10.05;3.83;;;;;;;24.36;44.25;101805.25;4812964;29;20034;-87
2022/06/18 04:10:41;;;;;;;9.68;4.03;;;;;;;24.37;43.66;101798.25;4843425;29;20032;-86
2022/06/18 04:13:07;;;;;;;10.43;3.83;;;;;;;24.37;43.97;101801.75;4844472;29;20034;-87
2022/06/18 04:15:33;;;;;;;10.70;4.13;;;;;;;24.38;44.06;101802.59;4827990;29;20481;-85
2022/06/18 04:17:58;;;;;;;8.50;3.40;;;;;;;24.38;43.93;101797.34;4828139;29;20094;-85
2022/06/18 04:20:28;;;;;;;12.00;4.05;;;;;;;24.37;44.15;101793.84;4828097;29;20041;-85
2022/06/18 04:22:56;;;;;;;9.40;4.60;;;;;;;24.37;43.86;101795.63;4844334;29;20105;-85
2022/06/18 04:25:22;;;;;;;10.32;4.00;;;;;;;24.38;43.90;101795.56;4843414;29;20030;-87
2022/06/18 04:27:48;;;;;;;8.30;4.05;;;;;;;24.39;43.83;101794.69;4829327;29;20038;-86
2022/06/18 04:30:15;;;;;;;8.80;3.90;;;;;;;24.39;44.04;101788.56;4829011;29;20037;-85
2022/06/18 04:32:41;;;;;;;13.48;4.10;;;;;;;24.38;43.87;101792.06;4846284;29;20120;-85
2022/06/18 04:35:09;;;;;;;10.77;4.82;;;;;;;24.37;44.23;101796.47;4814537;29;20125;-84
2022/06/18 04:37:35;;;;;;;12.07;4.38;;;;;;;24.41;43.82;101792.00;4846450;29;20030;-92
2022/06/18 04:40:01;;;;;;;11.57;4.63;;;;;;;24.45;43.92;101793.66;4860758;29;20054;-84
2022/06/18 04:42:27;;;;;;;12.13;4.70;;;;;;;24.41;44.40;101800.78;4863038;29;20033;-86
2022/06/18 04:44:52;;;;;;;15.95;5.18;;;;;;;24.44;44.47;101802.47;4831036;29;20086;-85
2022/06/18 04:47:18;;;;;;;11.50;5.05;;;;;;;24.42;44.74;101799.84;4830913;29;20030;-84
2022/06/18 04:49:44;;;;;;;8.38;3.72;;;;;;;24.41;44.35;101798.16;4830807;29;20041;-82
2022/06/18 04:52:09;;;;;;;9.50;4.20;;;;;;;24.40;44.38;101799.03;4862278;29;20041;-85
2022/06/18 04:54:36;;;;;;;12.60;4.93;;;;;;;24.34;44.85;101798.31;4831227;29;20459;-86
2022/06/18 04:57:01;;;;;;;16.63;5.45;;;;;;;24.28;44.95;101806.31;4846007;29;20399;-87
2022/06/18 04:59:27;;;;;;;16.92;5.50;;;;;;;24.24;44.65;101810.81;4863604;29;20038;-86
2022/06/18 05:02:05;;;;;;;15.55;5.38;;;;;;;24.22;45.10;101813.47;4831532;29;20044;-87
2022/06/18 05:04:30;;;;;;;14.18;4.93;;;;;;;24.21;45.15;101810.88;4846071;29;20021;-87
2022/06/18 05:06:56;;;;;;;14.70;5.30;;;;;;;24.22;44.95;101808.22;4846202;29;20044;-87
2022/06/18 05:09:21;;;;;;;13.57;5.47;;;;;;;24.21;44.80;101811.75;4830176;29;20040;-87
2022/06/18 05:11:47;;;;;;;17.80;5.63;;;;;;;24.19;45.04;101812.66;4831093;29;20625;-86
2022/06/18 05:14:14;;;;;;;15.02;4.97;;;;;;;24.17;44.84;101811.81;4848170;29;20082;-87
2022/06/18 05:16:40;;;;;;;18.02;5.32;;;;;;;24.15;44.67;101811.88;4863592;29;20046;-85
2022/06/18 05:19:05;;;;;;;11.23;4.55;;;;;;;24.13;44.55;101812.81;4849597;29;20025;-86
2022/06/18 05:21:31;;;;;;;17.02;4.85;;;;;;;24.14;44.42;101819.78;4847757;29;20065;-87
2022/06/18 05:23:56;;;;;;;13.82;4.53;;;;;;;24.14;44.37;101815.38;4817956;29;20125;-87
2022/06/18 05:26:21;;;;;;;17.27;4.90;;;;;;;24.12;44.08;101816.31;4831714;29;20034;-85
2022/06/18 05:28:47;;;;;;;16.27;4.63;;;;;;;24.02;44.29;101811.28;4846858;29;20060;-86
2022/06/18 05:31:12;;;;;;;13.30;4.55;;;;;;;24.03;44.26;101822.66;4831078;29;20038;-85
2022/06/18 05:33:38;;;;;;;13.02;4.78;;;;;;;23.92;44.44;101814.13;4831004;29;20034;-86
2022/06/18 05:36:05;;;;;;;15.70;5.00;;;;;;;23.87;44.43;101823.88;4831162;29;20037;-86
2022/06/18 05:38:30;;;;;;;18.35;4.80;;;;;;;23.91;44.42;101822.91;4845444;29;20029;-87
2022/06/18 05:40:56;;;;;;;16.25;5.13;;;;;;;23.88;44.37;101821.19;4830809;29;20057;-87
2022/06/18 05:43:21;;;;;;;12.32;4.25;;;;;;;23.85;44.68;101820.41;4830873;29;20484;-87
2022/06/18 05:45:47;;;;;;;18.25;4.78;;;;;;;23.85;44.66;101823.91;4848121;29;20030;-85
2022/06/18 05:48:12;;;;;;;15.63;4.63;;;;;;;23.78;44.79;101827.56;4815764;29;20037;-87
2022/06/18 05:50:38;;;;;;;11.35;4.85;;;;;;;23.76;44.75;101822.31;4846387;29;20109;-88
2022/06/18 05:53:03;;;;;;;17.30;4.50;;;;;;;23.83;44.29;101823.06;4844801;29;20038;-85
2022/06/18 05:55:29;;;;;;;16.75;4.35;;;;;;;23.80;44.36;101825.75;4837534;29;20037;-87
2022/06/18 05:57:56;;;;;;;14.80;4.10;;;;;;;23.86;44.59;101824.75;4867857;29;20026;-86
2022/06/18 06:00:28;;;;;;;13.23;4.18;;;;;;;23.89;44.55;101828.22;4867042;29;20044;-86
2022/06/18 06:02:53;;;;;;;14.70;3.97;;;;;;;23.91;44.68;101834.31;4867217;29;20041;-87
2022/06/18 06:05:19;;;;;;;13.18;4.65;;;;;;;23.96;44.82;101832.44;4853421;29;20058;-87
2022/06/18 06:07:44;;;;;;;11.75;3.78;;;;;;;23.99;44.71;101842.00;4838446;29;20013;-87
2022/06/18 06:13:15;;;;;;;13.10;4.05;;;;;;;23.94;45.09;101825.47;4867611;29;20086;-87
2022/06/18 06:15:41;;;;;;;12.75;3.97;;;;;;;24.02;45.20;101832.31;4862475;29;20030;-87
2022/06/18 06:18:09;;;;;;;10.85;3.75;;;;;;;23.99;45.28;101831.50;4845779;29;20051;-88
2022/06/18 06:20:38;;;;;;;13.20;3.75;;;;;;;24.05;45.17;101838.41;4833196;29;20044;-88
2022/06/18 06:23:04;;;;;;;10.32;3.38;;;;;;;24.01;45.56;101841.06;4865548;29;20069;-86
2022/06/18 06:25:30;;;;;;;10.80;3.50;;;;;;;24.01;45.84;101838.44;4848643;29;20021;-87
2022/06/18 06:27:55;;;;;;;14.02;3.88;;;;;;;24.10;45.52;101837.38;4833716;29;20034;-86
2022/06/18 06:30:21;;;;;;;13.88;3.63;;;;;;;24.12;45.57;101847.88;4849090;29;20036;-86
2022/06/18 06:32:46;;;;;;;9.88;3.40;;;;;;;24.10;45.56;101847.91;4833273;29;20496;-89
2022/06/18 06:35:13;;;;;;;9.73;3.35;;;;;;;24.08;45.60;101849.69;4849078;29;20118;-88
2022/06/18 06:37:39;;;;;;;13.00;3.58;;;;;;;24.10;45.48;101855.78;4865771;29;20455;-88
2022/06/18 06:40:05;;;;;;;9.48;3.15;;;;;;;24.12;45.88;101861.03;4847581;29;20046;-80
2022/06/18 06:42:42;;;;;;;9.07;2.92;;;;;;;24.16;45.39;101853.03;4852498;29;20038;-79
2022/06/18 06:45:11;;;;;;;9.32;2.90;;;;;;;24.24;45.33;101850.25;4852301;29;20031;-85
2022/06/18 06:47:36;;;;;;;9.77;2.88;;;;;;;24.27;45.56;101855.44;4848070;29;20026;-83
2022/06/18 06:50:04;;;;;;;9.27;3.15;;;;;;;24.26;45.29;101856.38;4832859;29;20044;-82
2022/06/18 06:52:30;;;;;;;9.65;3.10;;;;;;;24.29;44.66;101856.28;4847912;29;20046;-84
2022/06/18 06:57:21;;;;;;;10.70;2.83;;;;;;;24.30;44.69;101863.28;4832523;29;20192;-83
2022/06/18 06:57:44;;;;;;;10.75;2.83;;;;;;;24.33;44.93;101863.22;4864617;29;20037;-83
2022/06/18 07:00:11;;;;;;;8.45;2.58;;;;;;;24.36;44.80;101860.50;4847947;29;20070;-84
2022/06/18 07:02:37;;;;;;;7.72;2.63;;;;;;;24.36;44.78;101857.00;4848389;29;20146;-83
2022/06/18 07:05:03;;;;;;;9.77;2.95;;;;;;;24.33;45.01;101857.09;4847332;29;20061;-85
2022/06/18 07:07:30;;;;;;;8.40;2.45;;;;;;;24.45;44.89;101859.44;4847689;29;20037;-84
2022/06/18 07:09:55;;;;;;;8.70;2.85;;;;;;;24.48;44.77;101874.31;4833530;29;20041;-83
2022/06/18 07:12:21;;;;;;;8.35;2.67;;;;;;;24.39;44.92;101876.25;4832094;29;20034;-84
2022/06/18 07:14:46;;;;;;;9.57;2.80;;;;;;;24.40;44.67;101877.09;4847531;29;20453;-84
2022/06/18 07:17:19;;;;;;;6.88;2.80;;;;;;;24.46;44.32;101879.59;4848957;29;20036;-86
2022/06/18 07:19:45;;;;;;;;;;;;;;;24.46;44.92;101878.75;4837548;29;20060;-85
2022/06/18 07:22:10;;;;;;;14.32;3.03;;;;;;;24.43;44.69;101885.78;4853876;29;19912;-84
2022/06/18 07:24:36;;;;;;;7.20;2.90;;;;;;;24.34;45.27;101883.34;4866476;29;20014;-83
2022/06/18 07:27:03;;;;;;;9.55;3.45;;;;;;;24.29;45.37;101879.09;4858553;29;20025;-82
2022/06/18 07:29:28;;;;;;;9.27;2.88;;;;;;;24.25;45.01;101883.53;4841423;29;20437;-82
2022/06/18 07:31:53;;;;;;;7.22;2.72;;;;;;;24.46;44.82;101886.63;4846904;29;20090;-82
2022/06/18 07:34:19;;;;;;;9.40;2.70;;;;;;;24.54;44.47;101882.06;4818336;29;20035;-83
2022/06/18 07:36:44;;;;;;;9.07;2.60;;;;;;;24.63;44.40;101884.53;4819936;29;20033;-84
2022/06/18 07:39:10;;;;;;;8.05;3.15;;;;;;;24.60;44.48;101888.06;4837954;29;20033;-85
2022/06/18 07:41:40;;;;;;;6.45;2.85;;;;;;;24.59;44.44;101888.97;4836535;29;20057;-86
2022/06/18 07:44:05;;;;;;;9.77;3.10;;;;;;;24.62;44.38;101890.66;4855437;29;20105;-84
2022/06/18 07:46:31;;;;;;;7.57;2.70;;;;;;;24.65;44.66;101885.34;4838763;29;20049;-86
2022/06/18 07:48:56;;;;;;;5.82;2.78;;;;;;;24.70;44.45;101882.63;4873684;29;20038;-86
2022/06/18 07:51:24;;;;;;;8.38;2.85;;;;;;;24.70;44.19;101878.22;4834782;29;20033;-86
2022/06/18 07:53:50;;;;;;;9.70;2.80;;;;;;;24.75;44.40;101872.84;4864430;29;20066;-86
2022/06/18 07:56:16;;;;;;;10.20;2.63;;;;;;;24.70;44.72;101877.34;4818944;29;20093;-87
2022/06/18 07:58:41;;;;;;;8.75;2.35;;;;;;;24.72;44.56;101873.78;4849932;29;20035;-86
2022/06/18 08:01:07;;;;;;;9.38;2.85;;;;;;;24.72;44.83;101876.41;4850548;29;20120;-86
2022/06/18 08:03:32;;;;;;;8.43;2.70;;;;;;;24.75;44.64;101870.19;4850990;29;20036;-86
2022/06/18 08:05:58;;;;;;;10.45;2.75;;;;;;;24.79;44.41;101872.72;4834169;29;20034;-86
2022/06/18 08:08:23;;;;;;;7.07;2.60;;;;;;;24.84;44.53;101872.59;4847584;29;20468;-86
2022/06/18 08:10:51;;;;;;;9.35;2.70;;;;;;;24.82;44.60;101866.50;4847645;29;20049;-86
2022/06/18 08:13:16;;;;;;;8.63;2.80;;;;;;;24.67;44.32;101857.22;4848152;29;20034;-87
2022/06/18 08:15:42;;;;;;;7.85;2.70;;;;;;;24.72;44.36;101852.72;4846730;29;20515;-86
2022/06/18 08:18:07;;;;;;;8.82;2.70;;;;;;;24.76;44.46;101846.47;4846787;29;20381;-87
2022/06/18 08:20:34;;;;;;;7.75;2.75;;;;;;;24.83;44.13;101849.84;4816667;29;20040;-86
2022/06/18 08:23:01;;;;;;;7.22;2.70;;;;;;;24.79;44.73;101848.16;4863329;29;20084;-88
2022/06/18 08:25:29;;;;;;;7.00;2.40;;;;;;;24.67;44.98;101851.09;4817427;29;20034;-87
2022/06/18 08:27:57;;;;;;;9.57;2.80;;;;;;;24.74;44.77;101844.78;4847118;29;20452;-87
2022/06/18 08:30:24;;;;;;;6.50;2.58;;;;;;;24.76;44.69;101835.06;4846593;29;20037;-87
2022/06/18 08:32:49;;;;;;;8.48;2.88;;;;;;;24.81;44.34;101846.38;4846691;29;20061;-87
2022/06/18 08:35:15;;;;;;;8.02;2.90;;;;;;;24.71;44.52;101856.22;4831741;29;20108;-87
2022/06/18 08:37:40;;;;;;;8.70;2.80;;;;;;;24.71;44.76;101858.88;4862876;29;20116;-87
2022/06/18 08:43:31;;;;;;;8.05;2.60;;;;;;;24.77;44.78;101852.59;4862267;29;20109;-87
2022/06/18 08:46:22;;;;;;;9.27;2.80;;;;;;;24.78;44.32;101859.59;4842234;29;20045;-85
2022/06/18 08:49:17;;;;;;;5.97;2.70;;;;;;;24.81;44.65;101857.75;4868622;29;20373;-85
2022/06/18 08:52:19;;;;;;;7.57;2.50;;;;;;;24.83;44.78;101863.84;4855612;29;20041;-84
2022/06/18 08:55:14;;;;;;;7.25;2.40;;;;;;;24.87;44.63;101869.94;4862379;29;20037;-85
2022/06/18 08:58:00;;;;;;;7.97;2.45;;;;;;;24.86;44.15;101857.66;4845927;29;20025;-87
2022/06/18 09:01:05;;;;;;;6.22;2.40;;;;;;;24.82;44.05;101851.59;4845871;29;20408;-86
2022/06/18 09:04:17;;;;;;;5.82;2.20;;;;;;;24.92;44.08;101861.91;4841350;29;20057;-84
2022/06/18 09:06:51;;;;;;;10.27;1.98;;;;;;;25.12;43.70;101851.72;4823429;29;20037;-85
2022/06/18 09:09:45;;;;;;;10.65;4.20;;;;;;;25.07;47.45;101850.13;4863517;29;20112;-85
2022/06/18 09:12:24;;;;;;;18.27;4.35;;;;;;;24.47;60.53;101859.41;4846737;29;20388;-84
2022/06/18 09:15:03;;;;;;;10.45;3.08;;;;;;;24.07;57.34;101866.41;4845238;29;20414;-85
2022/06/18 09:17:54;;;;;;;6.85;2.80;;;;;;;23.94;55.14;101871.03;4845606;29;20029;-83
2022/06/18 09:20:52;;;;;;;8.25;2.50;;;;;;;23.90;55.82;101869.34;4845610;29;20021;-84
2022/06/18 09:23:25;;;;;;;7.80;2.53;;;;;;;23.90;55.98;101868.50;4845343;29;20044;-82
2022/06/18 09:25:53;;;;;;;8.88;2.90;;;;;;;23.88;56.13;101868.53;4845877;29;20468;-82
2022/06/18 09:28:35;;;;;;;4.93;2.10;;;;;;;23.92;55.76;101870.19;4850367;29;20033;-84
2022/06/18 09:31:05;;;;;;;5.97;2.75;;;;;;;23.90;57.11;101858.84;4846399;29;20029;-86
2022/06/18 09:33:44;;;;;;;7.75;2.40;;;;;;;23.92;56.14;101861.44;4845077;29;20025;-87
2022/06/18 09:36:17;;;;;;;7.10;2.33;;;;;;;23.93;55.55;101857.91;4862716;29;20029;-86
2022/06/18 09:38:45;;;;;;;;;;;;;;;23.96;55.26;101866.59;4845973;29;20025;-87
2022/06/18 09:41:19;;;;;;;5.38;2.15;;;;;;;23.96;54.77;101868.38;4862115;29;20410;-86
2022/06/18 09:43:45;;;;;;;6.35;2.30;;;;;;;23.96;54.86;101860.50;4862794;29;20484;-87
2022/06/18 09:46:23;;;;;;;4.13;2.00;;;;;;;23.97;54.94;101849.06;4846094;29;20056;-87
2022/06/18 09:48:49;;;;;;;5.15;2.33;;;;;;;23.98;53.71;101851.66;4845689;29;20061;-87
2022/06/18 09:51:28;;;;;;;6.85;2.40;;;;;;;24.00;53.20;101841.13;4830634;29;20129;-86
2022/06/18 09:53:58;;;;;;;4.35;2.00;;;;;;;24.00;53.97;101838.50;4845905;29;20033;-87
2022/06/18 09:56:32;;;;;;;4.88;2.08;;;;;;;24.03;52.32;101830.53;4849443;29;20045;-86
2022/06/18 09:59:03;;;;;;;5.03;2.30;;;;;;;24.00;53.12;101831.47;4849675;29;20036;-87
2022/06/18 10:01:43;;;;;;;6.43;2.40;;;;;;;24.01;54.25;101827.94;4849472;29;20073;-86
2022/06/18 10:06:58;;;;;;;5.97;2.45;;;;;;;24.05;52.79;101817.38;4866524;29;20093;-87
2022/06/18 10:09:33;;;;;;;4.20;2.20;;;;;;;24.04;53.37;101813.88;4880354;29;20073;-87
2022/06/18 10:12:05;;;;;;;4.50;2.10;;;;;;;24.04;52.55;101819.13;4857493;29;20035;-86
2022/06/18 10:14:30;;;;;;;4.32;2.00;;;;;;;24.05;52.81;101812.09;4876150;29;20030;-84
2022/06/18 10:17:06;;;;;;;4.88;2.00;;;;;;;24.09;52.91;101806.75;4837672;29;20041;-84
2022/06/18 10:19:59;;;;;;;6.13;2.20;;;;;;;24.09;53.31;101795.38;4867760;29;20056;-85
2022/06/18 10:22:57;;;;;;;6.43;1.90;;;;;;;24.07;53.27;101792.75;4849666;29;20029;-83
2022/06/18 10:25:36;;;;;;;4.13;1.88;;;;;;;24.09;52.32;101796.22;4848445;29;20424;-84
2022/06/18 10:28:11;;;;;;;6.05;1.85;;;;;;;24.09;52.84;101798.88;4848999;29;20116;-85
2022/06/18 10:30:55;;;;;;;3.78;1.85;;;;;;;24.09;52.16;101809.38;4866463;29;20446;-84
2022/06/18 10:33:46;;;;;;;4.95;1.70;;;;;;;24.08;52.64;101810.25;4849144;29;20036;-85
2022/06/18 10:36:22;;;;;;;5.05;2.05;;;;;;;24.08;52.74;101805.00;4849820;29;20029;-88
2022/06/18 10:39:09;;;;;;;4.55;2.00;;;;;;;24.08;53.50;101814.66;4848524;29;20030;-85
2022/06/18 10:41:34;;;;;;;4.07;2.00;;;;;;;24.08;52.72;101806.78;4865665;29;20057;-85
2022/06/18 10:44:18;;;;;;;3.90;1.75;;;;;;;24.08;52.56;101798.88;4865868;29;20044;-85
2022/06/18 10:46:43;;;;;;;3.60;1.67;;;;;;;24.09;52.32;101795.38;4865845;29;20109;-85
2022/06/18 10:49:09;;;;;;;3.17;1.48;;;;;;;24.14;51.21;101790.88;4852100;29;20053;-84
2022/06/18 10:51:47;;;;;;;3.83;1.65;;;;;;;24.11;52.93;101799.69;4860732;29;20064;-85
2022/06/18 10:54:15;;;;;;;2.65;1.40;;;;;;;24.15;51.80;101795.22;4849196;29;20033;-86
2022/06/18 10:56:50;;;;;;;2.17;1.35;;;;;;;24.12;51.47;101800.56;4865654;29;20025;-85
2022/06/18 10:59:27;;;;;;;3.08;1.60;;;;;;;24.13;52.03;101808.41;4848696;29;20029;-83
2022/06/18 11:01:52;;;;;;;4.60;1.92;;;;;;;24.09;52.71;101798.88;4848256;29;20086;-84
2022/06/18 11:04:25;;;;;;;4.28;1.80;;;;;;;24.14;52.91;101801.38;4833425;29;20100;-85
2022/06/18 11:06:58;;;;;;;4.50;1.60;;;;;;;24.16;51.99;101802.22;4864588;29;20518;-86
2022/06/18 11:09:30;;;;;;;3.55;1.70;;;;;;;24.16;52.50;101799.59;4848724;29;20033;-86
2022/06/18 11:11:59;;;;;;;4.72;1.85;;;;;;;24.21;52.23;101793.34;4865086;29;20033;-86
2022/06/18 11:14:26;;;;;;;3.17;1.60;;;;;;;24.18;51.77;101796.03;4848412;29;20116;-85
2022/06/18 11:16:55;;;;;;;2.90;1.65;;;;;;;24.21;51.33;101789.81;4848248;29;20033;-84
2022/06/18 11:19:34;;;;;;;2.42;1.70;;;;;;;24.27;51.21;101804.63;4848159;29;20021;-86
2022/06/18 11:22:17;;;;;;;3.97;1.63;;;;;;;24.23;50.92;101795.91;4847888;29;20120;-85
2022/06/18 11:24:44;;;;;;;2.88;1.70;;;;;;;24.22;51.78;101791.56;4864063;29;20037;-85
2022/06/18 11:27:15;;;;;;;4.10;1.50;;;;;;;24.25;51.30;101796.75;4864128;29;20033;-85
2022/06/18 11:29:52;;;;;;;2.97;1.40;;;;;;;24.28;50.78;101801.97;4847329;29;20103;-84
2022/06/18 11:32:32;;;;;;;3.63;1.50;;;;;;;24.28;50.90;101807.22;4850554;29;20048;-84
2022/06/18 11:35:01;;;;;;;3.72;1.60;;;;;;;24.27;50.99;101800.22;4847133;29;20036;-85
2022/06/18 11:37:31;;;;;;;2.55;1.52;;;;;;;24.32;51.08;101800.09;4847249;29;20528;-85
2022/06/18 11:40:03;;;;;;;1.98;1.63;;;;;;;24.29;51.03;101795.78;4847123;29;20176;-84
2022/06/18 11:42:28;;;;;;;1.90;1.33;;;;;;;24.30;51.28;101799.28;4847212;29;20049;-85
2022/06/18 11:45:14;;;;;;;3.47;1.55;;;;;;;24.36;51.75;101799.13;4847192;29;20041;-85
2022/06/18 11:47:49;;;;;;;3.45;1.67;;;;;;;24.34;50.98;101796.53;4847631;29;20026;-86
2022/06/18 11:50:30;;;;;;;2.67;1.50;;;;;;;24.34;51.51;101793.91;4864322;29;20429;-85